Time;durP1;ratioP1;P1;durP2;ratioP2;P2;SDS_P1;SDS_P2;PMS_P1;PMS_P2;Temp;Humidity;BMP_temperature;BMP_pressure;BME280_temperature;BME280_humidity;BME280_pressure;Samples;Min_cycle;Max_cycle;Signal;HPM_P1;HPM_P2
2023/07/08 00:00:16;;;;;;;0.00;0.00;;;;;;;;;;5114284;28;20055;-79
2023/07/08 00:02:42;;;;;;;0.00;0.00;;;;;;;;;;5115787;28;20054;-79
2023/07/08 00:05:10;;;;;;;0.00;0.00;;;;;;;;;;5114754;28;20040;-79
2023/07/08 00:07:36;;;;;;;0.00;0.00;;;;;;;;;;5115664;28;20044;-79
2023/07/08 00:10:02;;;;;;;0.00;0.00;;;;;;;;;;5115690;28;20508;-79
2023/07/08 00:12:28;;;;;;;0.00;0.00;;;;;;;;;;5114273;28;20044;-80
2023/07/08 00:14:53;;;;;;;0.00;0.00;;;;;;;;;;5114450;28;20096;-79
2023/07/08 00:17:19;;;;;;;0.00;0.00;;;;;;;;;;5115808;28;20044;-79
2023/07/08 00:19:47;;;;;;;0.00;0.00;;;;;;;;;;5114150;28;20115;-79
2023/07/08 00:22:14;;;;;;;0.00;0.00;;;;;;;;;;5115491;28;20047;-79
2023/07/08 00:24:40;;;;;;;0.00;0.00;;;;;;;;;;5115183;28;20047;-79
2023/07/08 00:27:08;;;;;;;0.00;0.00;;;;;;;;;;5114022;28;20402;-78
2023/07/08 00:29:34;;;;;;;0.00;0.00;;;;;;;;;;5114841;28;20082;-79
2023/07/08 00:32:00;;;;;;;0.00;0.00;;;;;;;;;;5113768;28;20070;-78
2023/07/08 00:34:26;;;;;;;0.00;0.00;;;;;;;;;;5115298;28;20047;-79
2023/07/08 00:36:52;;;;;;;0.00;0.00;;;;;;;;;;5114016;28;20481;-79
2023/07/08 00:39:18;;;;;;;0.00;0.00;;;;;;;;;;5114862;28;20039;-79
2023/07/08 00:41:44;;;;;;;0.00;0.00;;;;;;;;;;5114117;28;20126;-79
2023/07/08 00:44:11;;;;;;;0.00;0.00;;;;;;;;;;5114832;28;20067;-79
2023/07/08 00:46:49;;;;;;;0.00;0.00;;;;;;;;;;5115124;28;20454;-79
2023/07/08 00:49:24;;;;;;;0.00;0.00;;;;;;;;;;5114833;28;20047;-80
2023/07/08 00:51:50;;;;;;;;;;;;;;;;;;5115437;28;20073;-79
2023/07/08 00:54:18;;;;;;;0.00;0.00;;;;;;;;;;5113343;28;19915;-79
2023/07/08 00:56:50;;;;;;;0.00;0.00;;;;;;;;;;5114956;28;20098;-79
2023/07/08 00:59:22;;;;;;;0.00;0.00;;;;;;;;;;5114548;28;20100;-79
2023/07/08 01:01:48;;;;;;;0.00;0.00;;;;;;;;;;5114644;28;20086;-79
2023/07/08 01:04:25;;;;;;;0.00;0.00;;;;;;;;;;5114360;28;20058;-79
2023/07/08 01:06:57;;;;;;;0.00;0.00;;;;;;;;;;5113666;28;20040;-79
2023/07/08 01:09:25;;;;;;;0.00;0.00;;;;;;;;;;5113057;28;20043;-79
2023/07/08 01:11:51;;;;;;;0.00;0.00;;;;;;;;;;5113510;28;20040;-79
2023/07/08 01:14:20;;;;;;;0.00;0.00;;;;;;;;;;5114403;28;20043;-79
2023/07/08 01:16:46;;;;;;;0.00;0.00;;;;;;;;;;5113292;28;20054;-79
2023/07/08 01:19:19;;;;;;;0.00;0.00;;;;;;;;;;5114288;28;20402;-79
2023/07/08 01:22:06;;;;;;;0.00;0.00;;;;;;;;;;5112848;28;20119;-79
2023/07/08 01:24:33;;;;;;;0.00;0.00;;;;;;;;;;5112542;28;20047;-79
2023/07/08 01:27:00;;;;;;;0.00;0.00;;;;;;;;;;5114359;28;20116;-79
2023/07/08 01:29:26;;;;;;;0.00;0.00;;;;;;;;;;5112795;28;20035;-80
2023/07/08 01:31:55;;;;;;;0.00;0.00;;;;;;;;;;5114045;28;20043;-80
2023/07/08 01:34:21;;;;;;;0.00;0.00;;;;;;;;;;5112541;28;20040;-80
2023/07/08 01:36:53;;;;;;;0.00;0.00;;;;;;;;;;5112115;28;20039;-80
2023/07/08 01:39:20;;;;;;;0.00;0.00;;;;;;;;;;5113910;28;20436;-80
2023/07/08 01:41:46;;;;;;;0.00;0.00;;;;;;;;;;5112774;28;20067;-80
2023/07/08 01:44:20;;;;;;;0.00;0.00;;;;;;;;;;5112437;28;20122;-80
2023/07/08 01:46:45;;;;;;;0.00;0.00;;;;;;;;;;5112954;28;20035;-80
2023/07/08 01:49:11;;;;;;;0.00;0.00;;;;;;;;;;5113877;28;20142;-79
2023/07/08 01:51:37;;;;;;;0.00;0.00;;;;;;;;;;5113923;28;20042;-79
2023/07/08 01:54:03;;;;;;;0.00;0.00;;;;;;;;;;5112633;28;20043;-80
2023/07/08 01:56:29;;;;;;;0.00;0.00;;;;;;;;;;5112797;28;20491;-79
2023/07/08 01:58:55;;;;;;;0.00;0.00;;;;;;;;;;5113751;28;20089;-79
2023/07/08 02:01:21;;;;;;;0.00;0.00;;;;;;;;;;5113863;28;20542;-79
2023/07/08 02:03:47;;;;;;;0.00;0.00;;;;;;;;;;5113670;28;20040;-80
2023/07/08 02:06:13;;;;;;;0.00;0.00;;;;;;;;;;5112643;28;20045;-79
2023/07/08 02:08:39;;;;;;;0.00;0.00;;;;;;;;;;5112693;28;20039;-79
2023/07/08 02:11:05;;;;;;;0.00;0.00;;;;;;;;;;5113030;28;20085;-79
2023/07/08 02:13:31;;;;;;;0.00;0.00;;;;;;;;;;5112708;28;20032;-80
2023/07/08 02:15:57;;;;;;;0.00;0.00;;;;;;;;;;5112274;28;20470;-79
2023/07/08 02:18:24;;;;;;;0.00;0.00;;;;;;;;;;5113571;28;20036;-79
2023/07/08 02:20:51;;;;;;;0.00;0.00;;;;;;;;;;5112065;28;20153;-79
2023/07/08 02:23:17;;;;;;;0.00;0.00;;;;;;;;;;5112506;28;20054;-80
2023/07/08 02:25:51;;;;;;;0.00;0.00;;;;;;;;;;5113224;28;20039;-79
2023/07/08 02:28:17;;;;;;;0.00;0.00;;;;;;;;;;5113183;28;20490;-80
2023/07/08 02:30:43;;;;;;;0.00;0.00;;;;;;;;;;5113167;28;20118;-79
2023/07/08 02:33:09;;;;;;;0.00;0.00;;;;;;;;;;5112128;28;20075;-79
2023/07/08 02:35:35;;;;;;;0.00;0.00;;;;;;;;;;5113029;28;20047;-79
2023/07/08 02:38:03;;;;;;;0.00;0.00;;;;;;;;;;5113221;28;20119;-79
2023/07/08 02:40:29;;;;;;;0.00;0.00;;;;;;;;;;5111507;28;20056;-79
2023/07/08 02:42:55;;;;;;;0.00;0.00;;;;;;;;;;5113170;28;20039;-79
2023/07/08 02:45:21;;;;;;;0.00;0.00;;;;;;;;;;5111697;28;20122;-79
2023/07/08 02:47:47;;;;;;;0.00;0.00;;;;;;;;;;5111602;28;20093;-79
2023/07/08 02:50:13;;;;;;;0.00;0.00;;;;;;;;;;5112660;28;20070;-79
2023/07/08 02:52:41;;;;;;;0.00;0.00;;;;;;;;;;5113106;28;20039;-79
2023/07/08 02:55:07;;;;;;;0.00;0.00;;;;;;;;;;5111418;28;20039;-79
2023/07/08 02:57:33;;;;;;;0.00;0.00;;;;;;;;;;5112608;28;20127;-79
2023/07/08 02:59:59;;;;;;;0.00;0.00;;;;;;;;;;5112685;28;20516;-79
2023/07/08 03:02:27;;;;;;;0.00;0.00;;;;;;;;;;5112945;28;20264;-79
2023/07/08 03:04:54;;;;;;;0.00;0.00;;;;;;;;;;5111296;28;20036;-79
2023/07/08 03:07:20;;;;;;;0.00;0.00;;;;;;;;;;5112852;28;20104;-79
2023/07/08 03:09:46;;;;;;;0.00;0.00;;;;;;;;;;5112263;28;20169;-79
2023/07/08 03:12:13;;;;;;;0.00;0.00;;;;;;;;;;5111217;28;20071;-79
2023/07/08 03:14:39;;;;;;;0.00;0.00;;;;;;;;;;5112409;28;20451;-79
2023/07/08 03:17:05;;;;;;;0.00;0.00;;;;;;;;;;5112728;28;20048;-79
2023/07/08 03:19:32;;;;;;;0.00;0.00;;;;;;;;;;5111316;28;20048;-79
2023/07/08 03:21:58;;;;;;;0.00;0.00;;;;;;;;;;5112617;28;20054;-79
2023/07/08 03:24:25;;;;;;;0.00;0.00;;;;;;;;;;5112437;28;20039;-79
2023/07/08 03:26:54;;;;;;;0.00;0.00;;;;;;;;;;5094267;28;20039;-79
2023/07/08 03:29:21;;;;;;;0.00;0.00;;;;;;;;;;5111118;28;20089;-79
2023/07/08 03:31:47;;;;;;;0.00;0.00;;;;;;;;;;5112685;28;20071;-80
2023/07/08 03:34:13;;;;;;;0.00;0.00;;;;;;;;;;5112509;28;20062;-79
2023/07/08 03:36:48;;;;;;;0.00;0.00;;;;;;;;;;5111237;28;20043;-79
2023/07/08 03:39:14;;;;;;;0.00;0.00;;;;;;;;;;5112939;28;20499;-80
2023/07/08 03:41:40;;;;;;;0.20;0.08;;;;;;;;;;5112404;28;20044;-79
2023/07/08 03:44:06;;;;;;;0.00;0.00;;;;;;;;;;5112364;28;20392;-79
2023/07/08 03:46:32;;;;;;;0.00;0.00;;;;;;;;;;5112312;28;20118;-79
2023/07/08 03:48:58;;;;;;;0.00;0.00;;;;;;;;;;5112511;28;20491;-79
2023/07/08 03:51:32;;;;;;;0.00;0.00;;;;;;;;;;5112015;28;20035;-80
2023/07/08 03:53:58;;;;;;;0.00;0.00;;;;;;;;;;5112464;28;20044;-79
2023/07/08 03:56:24;;;;;;;0.10;0.08;;;;;;;;;;5110414;28;20109;-80
2023/07/08 03:58:51;;;;;;;0.00;0.00;;;;;;;;;;5112475;28;20055;-79
2023/07/08 04:01:18;;;;;;;0.00;0.00;;;;;;;;;;5115607;28;20162;-80
2023/07/08 04:03:45;;;;;;;0.00;0.00;;;;;;;;;;5115921;28;20039;-79
2023/07/08 04:06:11;;;;;;;0.00;0.00;;;;;;;;;;5115592;28;20036;-80
2023/07/08 04:08:37;;;;;;;0.00;0.00;;;;;;;;;;5114478;28;20486;-80
2023/07/08 04:11:03;;;;;;;0.00;0.00;;;;;;;;;;5114202;28;20051;-79
2023/07/08 04:13:29;;;;;;;0.00;0.00;;;;;;;;;;5115901;28;20061;-80
2023/07/08 04:15:56;;;;;;;0.00;0.00;;;;;;;;;;5114178;28;20039;-79
2023/07/08 04:18:22;;;;;;;0.00;0.00;;;;;;;;;;5114312;28;20057;-80
2023/07/08 04:20:52;;;;;;;0.00;0.00;;;;;;;;;;5114220;28;20076;-79
2023/07/08 04:23:19;;;;;;;0.00;0.00;;;;;;;;;;5097050;28;20371;-80
2023/07/08 04:25:45;;;;;;;0.00;0.00;;;;;;;;;;5114012;28;20036;-80
2023/07/08 04:28:11;;;;;;;0.00;0.00;;;;;;;;;;5115632;28;20118;-79
2023/07/08 04:30:40;;;;;;;0.00;0.00;;;;;;;;;;5113772;28;20071;-80
2023/07/08 04:33:12;;;;;;;0.00;0.00;;;;;;;;;;5115172;28;20051;-79
2023/07/08 04:35:38;;;;;;;0.00;0.00;;;;;;;;;;5115129;28;20040;-79
2023/07/08 04:38:12;;;;;;;0.00;0.00;;;;;;;;;;5115472;28;20039;-80
2023/07/08 04:40:39;;;;;;;0.00;0.00;;;;;;;;;;5115082;28;20509;-79
2023/07/08 04:43:05;;;;;;;0.00;0.00;;;;;;;;;;5096782;28;20127;-80
2023/07/08 04:45:31;;;;;;;0.00;0.00;;;;;;;;;;5113723;28;20563;-79
2023/07/08 04:47:57;;;;;;;0.00;0.00;;;;;;;;;;5113694;28;20060;-79
2023/07/08 04:50:23;;;;;;;0.00;0.00;;;;;;;;;;5114871;28;20039;-79
2023/07/08 04:52:49;;;;;;;0.00;0.00;;;;;;;;;;5115072;28;20069;-80
2023/07/08 04:55:16;;;;;;;0.00;0.00;;;;;;;;;;5114746;28;20071;-80
2023/07/08 04:57:42;;;;;;;0.00;0.00;;;;;;;;;;5114714;28;20494;-80
2023/07/08 05:00:10;;;;;;;0.00;0.00;;;;;;;;;;5114500;28;20055;-80
2023/07/08 05:02:36;;;;;;;0.00;0.00;;;;;;;;;;5114840;28;20039;-80
2023/07/08 05:05:02;;;;;;;0.00;0.00;;;;;;;;;;5113314;28;20049;-80
2023/07/08 05:07:28;;;;;;;0.00;0.00;;;;;;;;;;5113221;28;20035;-80
2023/07/08 05:09:55;;;;;;;0.00;0.00;;;;;;;;;;5096323;28;20071;-80
2023/07/08 05:12:21;;;;;;;0.00;0.00;;;;;;;;;;5113440;28;20043;-80
2023/07/08 05:14:49;;;;;;;0.00;0.00;;;;;;;;;;5114438;28;20506;-80
2023/07/08 05:17:15;;;;;;;0.00;0.00;;;;;;;;;;5114139;28;20490;-80
2023/07/08 05:19:43;;;;;;;0.00;0.00;;;;;;;;;;5114283;28;20040;-80
2023/07/08 05:22:09;;;;;;;0.00;0.00;;;;;;;;;;5095953;28;20048;-79
2023/07/08 05:24:36;;;;;;;0.00;0.00;;;;;;;;;;5113284;28;20122;-80
2023/07/08 05:27:03;;;;;;;0.38;0.30;;;;;;;;;;5095623;28;20043;-80
2023/07/08 05:29:29;;;;;;;0.00;0.00;;;;;;;;;;5113736;28;20039;-80
2023/07/08 05:31:55;;;;;;;0.00;0.00;;;;;;;;;;5112572;28;20047;-80
2023/07/08 05:34:21;;;;;;;0.00;0.00;;;;;;;;;;5114329;28;20049;-80
2023/07/08 05:36:47;;;;;;;0.00;0.00;;;;;;;;;;5112473;28;20325;-80
2023/07/08 05:39:13;;;;;;;0.00;0.00;;;;;;;;;;5114224;27;20067;-80
2023/07/08 05:41:40;;;;;;;0.00;0.00;;;;;;;;;;5113646;28;20047;-80
2023/07/08 05:44:06;;;;;;;0.00;0.00;;;;;;;;;;5113931;28;20071;-80
2023/07/08 05:46:32;;;;;;;0.00;0.00;;;;;;;;;;5112695;28;20043;-80
2023/07/08 05:48:58;;;;;;;0.00;0.00;;;;;;;;;;5113811;28;20035;-80
2023/07/08 05:51:24;;;;;;;0.00;0.00;;;;;;;;;;5113630;28;20435;-80
2023/07/08 05:53:50;;;;;;;0.00;0.00;;;;;;;;;;5114015;28;20046;-80
2023/07/08 05:56:16;;;;;;;0.05;0.00;;;;;;;;;;5112171;28;20032;-79
2023/07/08 05:58:42;;;;;;;0.00;0.00;;;;;;;;;;5112558;28;20051;-80
2023/07/08 06:01:08;;;;;;;0.00;0.00;;;;;;;;;;5111907;28;20152;-80
2023/07/08 06:03:34;;;;;;;0.00;0.00;;;;;;;;;;5112704;28;20167;-79
2023/07/08 06:06:02;;;;;;;0.68;0.10;;;;;;;;;;5113560;28;20536;-80
2023/07/08 06:08:28;;;;;;;0.00;0.00;;;;;;;;;;5112528;28;20054;-80
2023/07/08 06:10:54;;;;;;;0.00;0.00;;;;;;;;;;5113233;28;20408;-80
2023/07/08 06:13:19;;;;;;;0.00;0.00;;;;;;;;;;5113659;28;20097;-79
2023/07/08 06:15:46;;;;;;;0.00;0.00;;;;;;;;;;5112368;28;20122;-79
2023/07/08 06:18:12;;;;;;;0.00;0.00;;;;;;;;;;5113471;28;20046;-80
2023/07/08 06:20:38;;;;;;;0.00;0.00;;;;;;;;;;5113319;28;20465;-80
2023/07/08 06:23:04;;;;;;;0.00;0.00;;;;;;;;;;5111694;28;20043;-80
2023/07/08 06:25:30;;;;;;;0.00;0.00;;;;;;;;;;5095073;28;20079;-79
2023/07/08 06:27:56;;;;;;;0.05;0.05;;;;;;;;;;5113163;28;20437;-80
2023/07/08 06:30:22;;;;;;;0.20;0.10;;;;;;;;;;5112262;28;20031;-80
2023/07/08 06:32:48;;;;;;;0.00;0.00;;;;;;;;;;5113269;28;20118;-80
2023/07/08 06:35:14;;;;;;;0.00;0.00;;;;;;;;;;5112071;28;20047;-80
2023/07/08 06:37:40;;;;;;;0.00;0.00;;;;;;;;;;5112975;28;20047;-81
2023/07/08 06:40:06;;;;;;;0.00;0.00;;;;;;;;;;5113057;28;20039;-80
2023/07/08 06:42:32;;;;;;;0.00;0.00;;;;;;;;;;5112758;28;20031;-81
2023/07/08 06:44:58;;;;;;;0.00;0.00;;;;;;;;;;5113411;28;20371;-78
2023/07/08 06:47:24;;;;;;;0.00;0.00;;;;;;;;;;5111801;28;20039;-79
2023/07/08 06:49:50;;;;;;;0.00;0.00;;;;;;;;;;5112912;28;20039;-78
2023/07/08 06:52:16;;;;;;;0.00;0.00;;;;;;;;;;5113654;28;20040;-80
2023/07/08 06:54:48;;;;;;;0.00;0.00;;;;;;;;;;5113019;28;20047;-81
2023/07/08 06:57:14;;;;;;;0.00;0.00;;;;;;;;;;5113040;28;20384;-81
2023/07/08 06:59:40;;;;;;;0.00;0.00;;;;;;;;;;5111885;28;20089;-82
2023/07/08 07:02:06;;;;;;;0.00;0.00;;;;;;;;;;5111816;28;20447;-81
2023/07/08 07:04:32;;;;;;;0.00;0.00;;;;;;;;;;5112263;28;20043;-81
2023/07/08 07:06:58;;;;;;;0.00;0.00;;;;;;;;;;5112469;28;20372;-81
2023/07/08 07:09:24;;;;;;;0.00;0.00;;;;;;;;;;5112360;28;20114;-81
2023/07/08 07:11:50;;;;;;;0.00;0.00;;;;;;;;;;5113280;28;20092;-81
2023/07/08 07:14:16;;;;;;;0.00;0.00;;;;;;;;;;5113285;28;20032;-81
2023/07/08 07:16:42;;;;;;;0.00;0.00;;;;;;;;;;5094437;28;20502;-80
2023/07/08 07:19:08;;;;;;;0.00;0.00;;;;;;;;;;5111732;28;20486;-82
2023/07/08 07:21:34;;;;;;;0.00;0.00;;;;;;;;;;5111317;28;20075;-81
2023/07/08 07:24:00;;;;;;;0.00;0.00;;;;;;;;;;5112807;28;20122;-81
2023/07/08 07:26:26;;;;;;;0.00;0.00;;;;;;;;;;5111637;28;20036;-81
2023/07/08 07:28:52;;;;;;;0.00;0.00;;;;;;;;;;5111312;28;20545;-81
2023/07/08 07:31:18;;;;;;;0.00;0.00;;;;;;;;;;5112754;28;20046;-81
2023/07/08 07:33:44;;;;;;;0.00;0.00;;;;;;;;;;5112897;28;20071;-83
2023/07/08 07:36:10;;;;;;;0.00;0.00;;;;;;;;;;5115589;28;20092;-80
2023/07/08 07:38:36;;;;;;;0.00;0.00;;;;;;;;;;5114122;28;20028;-80
2023/07/08 07:41:05;;;;;;;0.00;0.00;;;;;;;;;;5116417;28;20028;-80
2023/07/08 07:43:32;;;;;;;0.00;0.00;;;;;;;;;;5114972;28;20093;-80
2023/07/08 07:45:57;;;;;;;0.00;0.00;;;;;;;;;;5116436;28;20035;-80
2023/07/08 07:48:24;;;;;;;0.00;0.00;;;;;;;;;;5114705;28;20562;-79
2023/07/08 07:50:51;;;;;;;0.00;0.00;;;;;;;;;;5115946;28;20478;-80
2023/07/08 07:53:17;;;;;;;0.00;0.00;;;;;;;;;;5115970;28;20111;-80
2023/07/08 07:55:43;;;;;;;0.00;0.00;;;;;;;;;;5115007;28;20101;-80
2023/07/08 07:58:11;;;;;;;0.00;0.00;;;;;;;;;;5115622;28;20071;-80
2023/07/08 08:00:38;;;;;;;0.00;0.00;;;;;;;;;;5114787;28;20086;-80
2023/07/08 08:03:04;;;;;;;0.00;0.00;;;;;;;;;;5115646;28;20402;-79
2023/07/08 08:05:30;;;;;;;0.00;0.00;;;;;;;;;;5115782;28;20039;-79
2023/07/08 08:07:56;;;;;;;0.00;0.00;;;;;;;;;;5115868;28;20031;-80
2023/07/08 08:10:21;;;;;;;0.00;0.00;;;;;;;;;;5116024;28;20379;-80
2023/07/08 08:12:50;;;;;;;0.10;0.00;;;;;;;;;;5114477;28;20180;-80
2023/07/08 08:15:16;;;;;;;0.00;0.00;;;;;;;;;;5097488;28;20050;-80
2023/07/08 08:17:47;;;;;;;0.00;0.00;;;;;;;;;;5115628;28;20605;-79
2023/07/08 08:20:13;;;;;;;0.00;0.00;;;;;;;;;;5115469;28;20043;-80
2023/07/08 08:22:39;;;;;;;0.00;0.00;;;;;;;;;;5115574;27;20046;-80
2023/07/08 08:25:05;;;;;;;0.00;0.00;;;;;;;;;;5115440;28;20063;-80
2023/07/08 08:27:31;;;;;;;0.00;0.00;;;;;;;;;;5114080;28;20067;-79
2023/07/08 08:29:56;;;;;;;0.00;0.00;;;;;;;;;;5115427;27;20447;-81
2023/07/08 08:32:22;;;;;;;0.00;0.00;;;;;;;;;;5114057;28;20053;-80
2023/07/08 08:34:48;;;;;;;0.00;0.00;;;;;;;;;;5114152;28;20043;-80
2023/07/08 08:37:15;;;;;;;0.00;0.00;;;;;;;;;;5114010;28;20122;-80
2023/07/08 08:39:42;;;;;;;0.00;0.00;;;;;;;;;;5115036;28;20039;-79
2023/07/08 08:42:20;;;;;;;0.00;0.00;;;;;;;;;;5113853;28;20039;-79
2023/07/08 08:44:46;;;;;;;0.00;0.00;;;;;;;;;;5115076;28;20044;-79
2023/07/08 08:47:12;;;;;;;0.00;0.00;;;;;;;;;;5114899;28;20157;-79
2023/07/08 08:49:51;;;;;;;0.00;0.00;;;;;;;;;;5096765;28;20067;-79
2023/07/08 08:52:18;;;;;;;0.00;0.00;;;;;;;;;;5114810;28;20528;-79
2023/07/08 08:54:45;;;;;;;0.00;0.00;;;;;;;;;;5114863;27;20047;-79
2023/07/08 08:57:30;;;;;;;0.00;0.00;;;;;;;;;;5113343;28;20087;-79
2023/07/08 08:59:57;;;;;;;0.00;0.00;;;;;;;;;;5114815;28;20486;-79
2023/07/08 09:02:23;;;;;;;0.00;0.00;;;;;;;;;;5096622;28;20043;-80
2023/07/08 09:04:49;;;;;;;0.00;0.00;;;;;;;;;;5113529;28;20044;-80
2023/07/08 09:07:18;;;;;;;0.00;0.00;;;;;;;;;;5114681;28;20046;-80
2023/07/08 09:09:53;;;;;;;0.00;0.00;;;;;;;;;;5114382;28;20035;-80
2023/07/08 09:12:22;;;;;;;0.00;0.00;;;;;;;;;;5114600;28;20135;-80
2023/07/08 09:14:50;;;;;;;0.00;0.00;;;;;;;;;;5113243;28;20044;-80
2023/07/08 09:17:36;;;;;;;0.00;0.00;;;;;;;;;;5114536;28;20050;-79
2023/07/08 09:20:11;;;;;;;0.20;0.00;;;;;;;;;;5112829;28;20122;-80
2023/07/08 09:22:37;;;;;;;0.00;0.00;;;;;;;;;;5114319;28;20122;-80
2023/07/08 09:25:16;;;;;;;0.00;0.00;;;;;;;;;;5104672;28;20452;-80
2023/07/08 09:27:46;;;;;;;0.00;0.00;;;;;;;;;;5088623;28;20043;-81
2023/07/08 09:30:14;;;;;;;0.00;0.00;;;;;;;;;;5113973;28;20034;-80
2023/07/08 09:32:41;;;;;;;0.00;0.00;;;;;;;;;;5113192;28;20130;-79
2023/07/08 09:35:08;;;;;;;0.00;0.00;;;;;;;;;;5112585;28;20083;-80
2023/07/08 09:37:35;;;;;;;0.00;0.00;;;;;;;;;;5112572;28;20043;-79
2023/07/08 09:40:04;;;;;;;0.00;0.00;;;;;;;;;;5113702;28;20482;-79
2023/07/08 09:42:31;;;;;;;0.00;0.00;;;;;;;;;;5112942;28;20122;-80
2023/07/08 09:44:58;;;;;;;0.00;0.00;;;;;;;;;;5112744;28;20031;-79
2023/07/08 09:47:28;;;;;;;0.00;0.00;;;;;;;;;;5112459;28;20285;-80
2023/07/08 09:49:54;;;;;;;0.00;0.00;;;;;;;;;;5113340;28;20047;-79
2023/07/08 09:52:20;;;;;;;0.00;0.00;;;;;;;;;;5113827;28;20110;-80
2023/07/08 09:54:47;;;;;;;0.00;0.00;;;;;;;;;;5113581;28;20513;-80
2023/07/08 09:57:16;;;;;;;0.00;0.00;;;;;;;;;;5111240;28;20064;-80
2023/07/08 09:59:49;;;;;;;0.00;0.00;;;;;;;;;;5113182;28;20483;-84
2023/07/08 10:02:25;;;;;;;0.00;0.00;;;;;;;;;;5113636;27;20327;-79
2023/07/08 10:04:56;;;;;;;0.00;0.00;;;;;;;;;;5112265;28;20566;-79
2023/07/08 10:07:22;;;;;;;0.00;0.00;;;;;;;;;;5113618;28;20040;-79
2023/07/08 10:09:51;;;;;;;0.10;0.00;;;;;;;;;;5111964;28;20510;-79
2023/07/08 10:12:17;;;;;;;0.00;0.00;;;;;;;;;;5112062;28;20091;-79
2023/07/08 10:14:46;;;;;;;0.00;0.00;;;;;;;;;;5112814;28;20088;-79
2023/07/08 10:17:16;;;;;;;0.00;0.00;;;;;;;;;;5113369;28;20070;-79
2023/07/08 10:19:42;;;;;;;0.00;0.00;;;;;;;;;;5113079;28;20166;-79
2023/07/08 10:22:17;;;;;;;0.00;0.00;;;;;;;;;;5111998;28;20059;-79
2023/07/08 10:24:46;;;;;;;0.00;0.00;;;;;;;;;;5111896;28;20051;-80
2023/07/08 10:27:21;;;;;;;0.00;0.00;;;;;;;;;;5111763;28;20391;-81
2023/07/08 10:29:53;;;;;;;0.00;0.00;;;;;;;;;;5112737;28;20035;-79
2023/07/08 10:32:29;;;;;;;0.00;0.00;;;;;;;;;;5111739;28;20047;-79
2023/07/08 10:34:55;;;;;;;0.00;0.00;;;;;;;;;;5112812;28;20043;-79
2023/07/08 10:37:39;;;;;;;0.00;0.00;;;;;;;;;;5111665;28;20039;-79
2023/07/08 10:40:22;;;;;;;0.00;0.00;;;;;;;;;;5094353;28;20048;-81
2023/07/08 10:42:54;;;;;;;0.00;0.00;;;;;;;;;;5112813;28;20036;-76
2023/07/08 10:45:40;;;;;;;0.00;0.00;;;;;;;;;;5111126;28;20035;-78
2023/07/08 10:48:15;;;;;;;0.00;0.00;;;;;;;;;;5112779;28;20071;-76
2023/07/08 10:50:41;;;;;;;0.00;0.00;;;;;;;;;;5112452;28;20451;-78
2023/07/08 10:53:10;;;;;;;0.00;0.00;;;;;;;;;;5112916;28;20036;-77
2023/07/08 10:55:45;;;;;;;0.00;0.00;;;;;;;;;;5112482;28;20332;-77
2023/07/08 10:58:21;;;;;;;0.10;0.10;;;;;;;;;;5112677;28;20063;-77
2023/07/08 11:00:58;;;;;;;0.00;0.00;;;;;;;;;;5112387;28;20052;-77
2023/07/08 11:03:24;;;;;;;0.00;0.00;;;;;;;;;;5111417;28;20043;-80
2023/07/08 11:06:03;;;;;;;0.00;0.00;;;;;;;;;;5112731;28;20321;-79
2023/07/08 11:08:42;;;;;;;0.00;0.00;;;;;;;;;;5112820;28;20506;-80
2023/07/08 11:11:14;;;;;;;0.00;0.00;;;;;;;;;;5115518;28;20039;-80
2023/07/08 11:13:44;;;;;;;0.00;0.00;;;;;;;;;;5115701;28;20046;-79
2023/07/08 11:16:14;;;;;;;0.00;0.00;;;;;;;;;;5115686;28;20079;-80
2023/07/08 11:18:47;;;;;;;0.00;0.00;;;;;;;;;;5117079;28;20061;-79
2023/07/08 11:21:15;;;;;;;0.00;0.00;;;;;;;;;;5115402;28;20043;-80
2023/07/08 11:23:44;;;;;;;0.00;0.00;;;;;;;;;;5116697;28;20039;-79
2023/07/08 11:26:24;;;;;;;0.00;0.00;;;;;;;;;;5116703;28;20161;-79
2023/07/08 11:28:51;;;;;;;0.00;0.00;;;;;;;;;;5116851;28;20047;-79
2023/07/08 11:31:18;;;;;;;0.00;0.00;;;;;;;;;;5115207;28;20035;-80
2023/07/08 11:33:45;;;;;;;0.00;0.00;;;;;;;;;;5116660;28;20039;-79
2023/07/08 11:36:12;;;;;;;0.00;0.00;;;;;;;;;;5116230;28;20038;-79
2023/07/08 11:38:45;;;;;;;0.00;0.00;;;;;;;;;;5115218;28;20078;-79
2023/07/08 11:41:21;;;;;;;0.00;0.00;;;;;;;;;;5116519;27;20036;-80
2023/07/08 11:43:50;;;;;;;0.00;0.00;;;;;;;;;;5115338;28;20043;-79
2023/07/08 11:46:20;;;;;;;0.00;0.00;;;;;;;;;;5114977;28;20046;-80
2023/07/08 11:48:50;;;;;;;0.00;0.00;;;;;;;;;;5116978;28;20482;-80
2023/07/08 11:51:27;;;;;;;0.00;0.00;;;;;;;;;;5116288;28;20043;-79
2023/07/08 11:54:01;;;;;;;0.00;0.00;;;;;;;;;;5114511;28;20035;-79
2023/07/08 11:56:28;;;;;;;0.00;0.00;;;;;;;;;;5114980;28;20064;-80
2023/07/08 11:59:00;;;;;;;0.00;0.00;;;;;;;;;;5115607;28;20139;-80
2023/07/08 12:01:39;;;;;;;0.00;0.00;;;;;;;;;;5115175;28;20343;-80
2023/07/08 12:04:08;;;;;;;0.00;0.00;;;;;;;;;;5114892;28;20406;-80
2023/07/08 12:06:34;;;;;;;0.00;0.00;;;;;;;;;;5115088;28;20123;-79
2023/07/08 12:09:14;;;;;;;0.00;0.00;;;;;;;;;;5116496;28;20071;-80
2023/07/08 12:11:40;;;;;;;0.00;0.00;;;;;;;;;;5098247;28;20451;-80
2023/07/08 12:14:08;;;;;;;0.75;0.20;;;;;;;;;;5116317;28;20498;-80
2023/07/08 12:16:34;;;;;;;0.00;0.00;;;;;;;;;;5114849;28;20051;-80
2023/07/08 12:19:04;;;;;;;0.00;0.00;;;;;;;;;;5110534;28;20058;-80
2023/07/08 12:21:30;;;;;;;0.00;0.00;;;;;;;;;;5101287;28;20036;-80
2023/07/08 12:24:03;;;;;;;0.00;0.00;;;;;;;;;;5116253;28;20039;-79
2023/07/08 12:26:29;;;;;;;0.00;0.00;;;;;;;;;;5115909;28;20043;-79
2023/07/08 12:28:56;;;;;;;0.00;0.00;;;;;;;;;;5114627;28;20032;-80
2023/07/08 12:31:23;;;;;;;0.00;0.00;;;;;;;;;;5113575;28;20088;-80
2023/07/08 12:33:50;;;;;;;0.00;0.00;;;;;;;;;;5113063;28;20484;-80
2023/07/08 12:36:21;;;;;;;0.00;0.00;;;;;;;;;;5115478;28;20399;-80
2023/07/08 12:38:48;;;;;;;0.00;0.00;;;;;;;;;;5108219;28;20472;-79
2023/07/08 12:41:24;;;;;;;0.00;0.00;;;;;;;;;;5095298;28;20054;-80
2023/07/08 12:43:52;;;;;;;0.00;0.00;;;;;;;;;;5095352;28;20466;-80
2023/07/08 12:46:19;;;;;;;0.00;0.00;;;;;;;;;;5094879;28;20100;-79
2023/07/08 12:48:45;;;;;;;0.00;0.00;;;;;;;;;;5093822;28;20040;-80
2023/07/08 12:51:13;;;;;;;0.00;0.00;;;;;;;;;;5094617;28;20548;-80
2023/07/08 12:53:38;;;;;;;0.00;0.00;;;;;;;;;;5095526;28;20502;-79
2023/07/08 12:56:05;;;;;;;0.00;0.00;;;;;;;;;;5093268;28;20072;-80
2023/07/08 12:58:32;;;;;;;0.00;0.00;;;;;;;;;;5094952;28;20503;-79
2023/07/08 13:01:01;;;;;;;0.00;0.00;;;;;;;;;;5094705;28;20057;-80
2023/07/08 13:03:29;;;;;;;0.00;0.00;;;;;;;;;;5094901;28;20051;-80
2023/07/08 13:05:56;;;;;;;0.00;0.00;;;;;;;;;;5093510;28;20047;-80
2023/07/08 13:08:24;;;;;;;0.00;0.00;;;;;;;;;;5093958;28;20040;-79
2023/07/08 13:10:53;;;;;;;0.00;0.00;;;;;;;;;;5094536;28;20036;-80
2023/07/08 13:13:27;;;;;;;0.00;0.00;;;;;;;;;;5093628;28;20032;-80
2023/07/08 13:15:53;;;;;;;0.00;0.00;;;;;;;;;;5094490;28;20101;-80
2023/07/08 13:18:20;;;;;;;0.00;0.00;;;;;;;;;;5094589;28;20043;-79
2023/07/08 13:20:48;;;;;;;0.00;0.00;;;;;;;;;;5094664;28;20044;-79
2023/07/08 13:23:14;;;;;;;0.00;0.00;;;;;;;;;;5094623;28;20069;-79
2023/07/08 13:25:40;;;;;;;0.00;0.00;;;;;;;;;;5092967;28;20040;-80
2023/07/08 13:28:17;;;;;;;0.00;0.00;;;;;;;;;;5094665;28;20111;-79
2023/07/08 13:31:00;;;;;;;0.00;0.00;;;;;;;;;;5092966;28;20426;-80
2023/07/08 13:33:31;;;;;;;0.00;0.00;;;;;;;;;;5093611;28;20635;-80
2023/07/08 13:35:57;;;;;;;0.00;0.00;;;;;;;;;;5109841;28;20039;-79
2023/07/08 13:38:24;;;;;;;0.00;0.00;;;;;;;;;;5113595;28;20054;-79
2023/07/08 13:40:58;;;;;;;0.00;0.00;;;;;;;;;;5113145;28;20075;-79
2023/07/08 13:43:28;;;;;;;0.00;0.00;;;;;;;;;;5114398;28;20040;-79
2023/07/08 13:45:54;;;;;;;0.00;0.00;;;;;;;;;;5114449;27;20075;-79
2023/07/08 13:48:28;;;;;;;0.00;0.00;;;;;;;;;;5114873;28;20031;-80
2023/07/08 13:50:57;;;;;;;0.00;0.00;;;;;;;;;;5114293;28;20382;-79
2023/07/08 13:53:25;;;;;;;0.00;0.00;;;;;;;;;;5114487;28;20434;-80
2023/07/08 13:56:02;;;;;;;0.17;0.00;;;;;;;;;;5114006;28;20440;-79
2023/07/08 13:58:29;;;;;;;0.00;0.00;;;;;;;;;;5114171;28;20051;-79
2023/07/08 14:00:55;;;;;;;0.00;0.00;;;;;;;;;;5111559;28;20074;-79
2023/07/08 14:03:21;;;;;;;0.00;0.00;;;;;;;;;;5093020;28;20169;-80
2023/07/08 14:05:47;;;;;;;0.00;0.00;;;;;;;;;;5092988;28;20475;-79
2023/07/08 14:08:15;;;;;;;0.00;0.00;;;;;;;;;;5092180;28;20044;-79
2023/07/08 14:10:41;;;;;;;0.00;0.00;;;;;;;;;;5092144;28;20068;-79
2023/07/08 14:13:07;;;;;;;0.00;0.00;;;;;;;;;;5092375;28;20040;-79
2023/07/08 14:15:33;;;;;;;0.00;0.00;;;;;;;;;;5092615;28;20048;-79
2023/07/08 14:18:01;;;;;;;0.00;0.00;;;;;;;;;;5093326;28;20071;-80
2023/07/08 14:20:30;;;;;;;0.00;0.00;;;;;;;;;;5093271;28;20047;-79
2023/07/08 14:22:56;;;;;;;0.00;0.00;;;;;;;;;;5092968;28;20047;-79
2023/07/08 14:25:23;;;;;;;0.00;0.00;;;;;;;;;;5093507;28;20040;-78
2023/07/08 14:27:50;;;;;;;0.00;0.00;;;;;;;;;;5091835;28;20040;-79
2023/07/08 14:30:16;;;;;;;0.00;0.00;;;;;;;;;;5092056;28;20044;-78
2023/07/08 14:32:43;;;;;;;0.00;0.00;;;;;;;;;;5093207;28;20048;-78
2023/07/08 14:35:21;;;;;;;0.00;0.00;;;;;;;;;;5091770;28;20145;-78
2023/07/08 14:37:47;;;;;;;0.00;0.00;;;;;;;;;;5091810;28;20044;-79
2023/07/08 14:40:27;;;;;;;0.00;0.00;;;;;;;;;;5093285;28;20126;-79
2023/07/08 14:42:57;;;;;;;0.00;0.00;;;;;;;;;;5091377;28;20040;-78
2023/07/08 14:45:23;;;;;;;0.00;0.00;;;;;;;;;;5091903;28;20043;-78
2023/07/08 14:47:49;;;;;;;0.00;0.00;;;;;;;;;;5091629;28;20036;-78